WetterOnline ( http://www.wetteronline.at )

Wetter aktuell Rostock

Aktuelles Wetter: Rostock-Warnemünde (10m)

6-stündlich | Neueste Meldungen
Ortszeit Temperatur Wetter
Mi, 20.02. 7:00 6.2° C bedeckt
Mi, 20.02. 1:00 5.8° C bewölkt
Di, 19.02. 19:00 6.0° C bewölkt
Di, 19.02. 13:00 9.2° C wolkig
Di, 19.02. 7:00 6.9° C bedeckt
Di, 19.02. 1:00 7.6° C bedeckt
Mo, 18.02. 19:00 9.5° C wolkenlos
Mo, 18.02. 13:00 12.3° C wolkenlos
Ortszeit Temperatur Wetter
Mi, 20.02. 12:00 8.1° C bewölkt
Mi, 20.02. 11:50 8.1° C bewölkt
Mi, 20.02. 11:40 8.1° C bewölkt
Mi, 20.02. 11:30 7.9° C bewölkt
Mi, 20.02. 11:20 7.9° C bedeckt
Mi, 20.02. 11:10 7.6° C wolkig
Mi, 20.02. 11:00 6.9° C bewölkt
Mi, 20.02. 10:30 6.9° C wolkig
Mi, 20.02. 10:00 6.8° C bedeckt
Mi, 20.02. 9:30 6.6° C bedeckt
Mi, 20.02. 9:00 6.3° C bewölkt
Ortszeit Relative Feuchte Sichtweite
Mi, 20.02. 7:00 86% 13 km
Mi, 20.02. 1:00 86% 16 km
Di, 19.02. 19:00 85% 30 km
Di, 19.02. 13:00 70% 8 km
Di, 19.02. 7:00 75% 9 km
Di, 19.02. 1:00 67% 14 km
Mo, 18.02. 19:00 66% 10 km
Mo, 18.02. 13:00 56% 10 km
Ortszeit Relative Feuchte Sichtweite
Mi, 20.02. 12:00 75% 11 km
Mi, 20.02. 11:50 75% -
Mi, 20.02. 11:40 74% -
Mi, 20.02. 11:30 75% 9 km
Mi, 20.02. 11:20 75% -
Mi, 20.02. 11:10 76% -
Mi, 20.02. 11:00 81% 9 km
Mi, 20.02. 10:30 81% 10 km
Mi, 20.02. 10:00 82% 12 km
Mi, 20.02. 9:30 83% 11 km
Mi, 20.02. 9:00 85% 12 km
Ortszeit Niederschlagsmenge Niederschlagsart
Mi, 20.02. 7:00 0.1 l/m2 in 12 Std. Regen
Mi, 20.02. 1:00 0.0 l/m2 in 6 Std. -
Di, 19.02. 19:00 0.5 l/m2 in 12 Std. Regen
Di, 19.02. 13:00 0.4 l/m2 in 6 Std. Regen
Di, 19.02. 7:00 0.0 l/m2 in 12 Std. -
Di, 19.02. 1:00 0.0 l/m2 in 6 Std. -
Mo, 18.02. 19:00 0.0 l/m2 in 12 Std. -
Mo, 18.02. 13:00 0.0 l/m2 in 6 Std. -
Ortszeit Niederschlagsmenge Niederschlagsart
Mi, 20.02. 12:00 0.0 l/m2 in 1 Std. -
Mi, 20.02. 11:50 keine Meldung -
Mi, 20.02. 11:40 keine Meldung -
Mi, 20.02. 11:30 0.0 l/m2 in 1 Std. -
Mi, 20.02. 11:20 keine Meldung -
Mi, 20.02. 11:10 keine Meldung -
Mi, 20.02. 11:00 0.0 l/m2 in 1 Std. -
Mi, 20.02. 10:30 0.0 l/m2 in 1 Std. -
Mi, 20.02. 10:00 0.0 l/m2 in 1 Std. -
Mi, 20.02. 9:30 0.0 l/m2 in 1 Std. -
Mi, 20.02. 9:00 0.0 l/m2 in 1 Std. -
Ortszeit Stärke Spitze Richtung
km/h Bft. km/h Grad Sektor
Mi, 20.02. 7:00 25 4 54 260° W
Mi, 20.02. 1:00 28 4 54 260° W
Di, 19.02. 19:00 30 5 52 260° W
Di, 19.02. 13:00 22 4 50 240° SW
Di, 19.02. 7:00 14 3 32 230° SW
Di, 19.02. 1:00 11 2 22 170° S
Mo, 18.02. 19:00 9 2 26 170° S
Mo, 18.02. 13:00 9 2 20 220° SW
Ortszeit Stärke Spitze Richtung
km/h Bft. km/h Grad Sektor
Mi, 20.02. 12:00 20 4 33 270° W
Mi, 20.02. 11:50 20 4 - 270° W
Mi, 20.02. 11:40 17 3 - 260° W
Mi, 20.02. 11:30 18 3 32 260° W
Mi, 20.02. 11:20 18 3 - 260° W
Mi, 20.02. 11:10 18 3 - 260° W
Mi, 20.02. 11:00 22 4 40 260° W
Mi, 20.02. 10:30 22 4 37 260° W
Mi, 20.02. 10:00 22 4 35 270° W
Mi, 20.02. 9:30 19 3 35 260° W
Mi, 20.02. 9:00 17 3 43 250° W
Ortszeit Untergrenze Bedeckung Gattung
total tief tief mittel hoch
Mi, 20.02. 7:00 1500 m 8/8 8/8 - - -
Mi, 20.02. 1:00 1410 m 7/8 7/8 - - -
Di, 19.02. 19:00 1140 m 7/8 7/8 - - -
Di, 19.02. 13:00 690 m 6/8 6/8 - - -
Di, 19.02. 7:00 840 m 8/8 8/8 - - -
Di, 19.02. 1:00 6000 m 8/8 8/8 - - -
Mo, 18.02. 19:00 - 0/8 0/8 - - -
Mo, 18.02. 13:00 - 0/8 0/8 - - -
Ortszeit Bedeckungsgrad in Achtel und Wolkenuntergrenze
Mi, 20.02. 12:00 7(1500m) 8(5100m)
Mi, 20.02. 11:50 7(1500m) 8(5100m)
Mi, 20.02. 11:40 7(1500m) 7(5100m)
Mi, 20.02. 11:30 6(1500m) 7(5100m) 9
Mi, 20.02. 11:20 9 9 9
Mi, 20.02. 11:10 3(1500m) 6(5100m) 7(5700m)
Mi, 20.02. 11:00 5(5100m) 7(5700m) 7(5700m)
Mi, 20.02. 10:30 5(1440m) 7(6000m) 6(6000m)
Mi, 20.02. 10:00 1(480m) 8(1440m)
Mi, 20.02. 9:30 8(1440m)
Mi, 20.02. 9:00 1(360m) 7(1440m) 8(5700m)
Ortszeit Luftdruck NN (hPa) Tendenz (hPa in 3 Std.)
Mi, 20.02. 7:00 1016 + 0,9
Mi, 20.02. 1:00 1014 + 0,9
Di, 19.02. 19:00 1013 + 1,1
Di, 19.02. 13:00 1011 - 0,3
Di, 19.02. 7:00 1011 - 0,1
Di, 19.02. 1:00 1012 - 1,4
Mo, 18.02. 19:00 1015 - 1,0
Mo, 18.02. 13:00 1018 - 0,8
Ortszeit Luftdruck NN (hPa) Tendenz (hPa in 3 Std.)
Mi, 20.02. 12:00 1019 + 1,9
Mi, 20.02. 11:50 1019 keine Meldung
Mi, 20.02. 11:40 1019 keine Meldung
Mi, 20.02. 11:30 1019 + 2,0
Mi, 20.02. 11:20 1019 keine Meldung
Mi, 20.02. 11:10 1019 keine Meldung
Mi, 20.02. 11:00 1019 + 2,3
Mi, 20.02. 10:30 1019 + 2,2
Mi, 20.02. 10:00 1018 + 2,3
Mi, 20.02. 9:30 1018 + 1,8
Mi, 20.02. 9:00 1017 + 1,8
Ortszeit Schneehöhe (cm)
Mi, 20.02. 7:00 0
Mi, 20.02. 1:00 0
Di, 19.02. 19:00 0
Di, 19.02. 13:00 0
Di, 19.02. 7:00 0
Di, 19.02. 1:00 0
Mo, 18.02. 19:00 0
Mo, 18.02. 13:00 0
Ortszeit Schneehöhe (cm)
Mi, 20.02. 12:00 0
Mi, 20.02. 11:50 0
Mi, 20.02. 11:40 0
Mi, 20.02. 11:30 0
Mi, 20.02. 11:20 0
Mi, 20.02. 11:10 0
Mi, 20.02. 11:00 0
Mi, 20.02. 10:30 0
Mi, 20.02. 10:00 0
Mi, 20.02. 9:30 0
Mi, 20.02. 9:00 0
Link zu dieser Seite / Seite empfehlen

Das Wetter in ...